sensor_id;sensor_type;location;lat;lon;timestamp;pressure;altitude;pressure_sealevel;temperature;humidity
9257;BME280;4665;51.368;6.782;2023-02-15T00:00:03;102632.75;;;1.65;100.00
9257;BME280;4665;51.368;6.782;2023-02-15T00:02:30;102630.22;;;1.62;100.00
9257;BME280;4665;51.368;6.782;2023-02-15T00:05:02;102633.78;;;1.61;100.00
9257;BME280;4665;51.368;6.782;2023-02-15T00:07:27;102631.28;;;1.57;100.00
9257;BME280;4665;51.368;6.782;2023-02-15T00:09:53;102622.72;;;1.52;100.00
9257;BME280;4665;51.368;6.782;2023-02-15T00:12:18;102616.66;;;1.50;100.00
9257;BME280;4665;51.368;6.782;2023-02-15T00:14:45;102604.31;;;1.52;100.00
9257;BME280;4665;51.368;6.782;2023-02-15T00:17:10;102606.78;;;1.56;100.00
9257;BME280;4665;51.368;6.782;2023-02-15T00:19:36;102612.06;;;1.56;100.00
9257;BME280;4665;51.368;6.782;2023-02-15T00:22:01;102613.06;;;1.52;100.00
9257;BME280;4665;51.368;6.782;2023-02-15T00:24:27;102621.63;;;1.57;100.00
9257;BME280;4665;51.368;6.782;2023-02-15T00:26:52;102617.88;;;1.64;100.00
9257;BME280;4665;51.368;6.782;2023-02-15T00:29:19;102600.31;;;1.66;100.00
9257;BME280;4665;51.368;6.782;2023-02-15T00:31:45;102601.06;;;1.70;100.00
9257;BME280;4665;51.368;6.782;2023-02-15T00:34:20;102601.81;;;1.74;100.00
9257;BME280;4665;51.368;6.782;2023-02-15T00:36:46;102610.66;;;1.71;100.00
9257;BME280;4665;51.368;6.782;2023-02-15T00:39:12;102610.56;;;1.74;100.00
9257;BME280;4665;51.368;6.782;2023-02-15T00:41:40;102601.81;;;1.74;100.00
9257;BME280;4665;51.368;6.782;2023-02-15T00:44:38;102590.91;;;1.59;100.00
9257;BME280;4665;51.368;6.782;2023-02-15T00:47:04;102594.94;;;1.44;100.00
9257;BME280;4665;51.368;6.782;2023-02-15T00:49:29;102603.72;;;1.43;100.00
9257;BME280;4665;51.368;6.782;2023-02-15T00:51:55;102606.41;;;1.42;100.00
9257;BME280;4665;51.368;6.782;2023-02-15T00:54:20;102593.50;;;1.34;100.00
9257;BME280;4665;51.368;6.782;2023-02-15T00:56:46;102600.50;;;1.35;100.00
9257;BME280;4665;51.368;6.782;2023-02-15T00:59:11;102602.31;;;1.33;100.00
9257;BME280;4665;51.368;6.782;2023-02-15T01:01:36;102590.94;;;1.33;100.00
9257;BME280;4665;51.368;6.782;2023-02-15T01:04:02;102590.88;;;1.34;100.00
9257;BME280;4665;51.368;6.782;2023-02-15T01:06:27;102591.25;;;1.23;100.00
9257;BME280;4665;51.368;6.782;2023-02-15T01:08:53;102601.84;;;1.20;100.00
9257;BME280;4665;51.368;6.782;2023-02-15T01:11:21;102602.78;;;1.18;100.00
9257;BME280;4665;51.368;6.782;2023-02-15T01:13:52;102601.97;;;1.16;100.00
9257;BME280;4665;51.368;6.782;2023-02-15T01:16:18;102596.78;;;1.14;100.00
9257;BME280;4665;51.368;6.782;2023-02-15T01:18:44;102597.75;;;1.12;100.00
9257;BME280;4665;51.368;6.782;2023-02-15T01:21:15;102603.88;;;1.12;100.00
9257;BME280;4665;51.368;6.782;2023-02-15T01:23:42;102593.41;;;1.11;100.00
9257;BME280;4665;51.368;6.782;2023-02-15T01:26:09;102594.31;;;1.10;100.00
9257;BME280;4665;51.368;6.782;2023-02-15T01:28:35;102589.06;;;1.10;100.00
9257;BME280;4665;51.368;6.782;2023-02-15T01:31:09;102578.66;;;1.07;100.00
9257;BME280;4665;51.368;6.782;2023-02-15T01:33:36;102582.03;;;1.10;100.00
9257;BME280;4665;51.368;6.782;2023-02-15T01:36:02;102583.03;;;1.06;100.00
9257;BME280;4665;51.368;6.782;2023-02-15T01:38:27;102583.97;;;1.05;100.00
9257;BME280;4665;51.368;6.782;2023-02-15T01:40:54;102581.41;;;1.02;100.00
9257;BME280;4665;51.368;6.782;2023-02-15T01:43:45;102574.50;;;0.99;100.00
9257;BME280;4665;51.368;6.782;2023-02-15T01:46:13;102574.66;;;0.95;100.00
9257;BME280;4665;51.368;6.782;2023-02-15T01:48:52;102577.13;;;0.99;100.00
9257;BME280;4665;51.368;6.782;2023-02-15T01:51:22;102566.84;;;0.93;100.00
9257;BME280;4665;51.368;6.782;2023-02-15T01:53:53;102570.47;;;0.89;100.00
9257;BME280;4665;51.368;6.782;2023-02-15T01:56:25;102572.25;;;0.89;100.00
9257;BME280;4665;51.368;6.782;2023-02-15T01:58:54;102575.81;;;0.86;100.00
9257;BME280;4665;51.368;6.782;2023-02-15T02:01:21;102577.63;;;0.84;100.00
9257;BME280;4665;51.368;6.782;2023-02-15T02:06:32;102564.84;;;0.73;100.00
9257;BME280;4665;51.368;6.782;2023-02-15T02:08:58;102559.06;;;0.62;100.00
9257;BME280;4665;51.368;6.782;2023-02-15T02:11:25;102549.56;;;0.58;100.00
9257;BME280;4665;51.368;6.782;2023-02-15T02:13:51;102553.88;;;0.60;100.00
9257;BME280;4665;51.368;6.782;2023-02-15T02:16:42;102551.09;;;0.65;100.00
9257;BME280;4665;51.368;6.782;2023-02-15T02:22:36;102548.41;;;0.67;100.00
9257;BME280;4665;51.368;6.782;2023-02-15T02:33:34;102535.44;;;0.62;100.00
9257;BME280;4665;51.368;6.782;2023-02-15T02:47:22;102519.69;;;0.62;100.00
9257;BME280;4665;51.368;6.782;2023-02-15T02:49:56;102512.75;;;0.61;100.00
9257;BME280;4665;51.368;6.782;2023-02-15T02:57:40;102505.06;;;0.55;100.00
9257;BME280;4665;51.368;6.782;2023-02-15T03:00:08;102495.50;;;0.54;100.00
9257;BME280;4665;51.368;6.782;2023-02-15T03:02:37;102492.28;;;0.44;100.00
9257;BME280;4665;51.368;6.782;2023-02-15T03:05:08;102501.88;;;0.45;100.00
9257;BME280;4665;51.368;6.782;2023-02-15T03:07:35;102499.25;;;0.45;100.00
9257;BME280;4665;51.368;6.782;2023-02-15T03:10:03;102496.63;;;0.45;100.00
9257;BME280;4665;51.368;6.782;2023-02-15T03:12:35;102495.78;;;0.45;100.00
9257;BME280;4665;51.368;6.782;2023-02-15T03:15:10;102493.22;;;0.41;100.00
9257;BME280;4665;51.368;6.782;2023-02-15T03:17:41;102487.09;;;0.43;100.00
9257;BME280;4665;51.368;6.782;2023-02-15T03:20:12;102488.78;;;0.44;100.00
9257;BME280;4665;51.368;6.782;2023-02-15T03:22:54;102477.59;;;0.38;100.00
9257;BME280;4665;51.368;6.782;2023-02-15T03:25:26;102493.38;;;0.37;100.00
9257;BME280;4665;51.368;6.782;2023-02-15T03:27:55;102491.78;;;0.33;100.00
9257;BME280;4665;51.368;6.782;2023-02-15T03:30:24;102490.88;;;0.32;100.00
9257;BME280;4665;51.368;6.782;2023-02-15T03:32:52;102483.97;;;0.30;100.00
9257;BME280;4665;51.368;6.782;2023-02-15T03:35:21;102495.53;;;0.24;100.00
9257;BME280;4665;51.368;6.782;2023-02-15T03:37:51;102491.97;;;0.25;100.00
9257;BME280;4665;51.368;6.782;2023-02-15T03:40:23;102490.28;;;0.24;100.00
9257;BME280;4665;51.368;6.782;2023-02-15T03:43:29;102496.53;;;0.18;100.00
9257;BME280;4665;51.368;6.782;2023-02-15T03:46:00;102489.63;;;0.16;100.00
9257;BME280;4665;51.368;6.782;2023-02-15T03:48:38;102485.22;;;0.18;100.00
9257;BME280;4665;51.368;6.782;2023-02-15T03:51:09;102485.31;;;0.15;100.00
9257;BME280;4665;51.368;6.782;2023-02-15T03:54:18;102479.06;;;0.19;100.00
9257;BME280;4665;51.368;6.782;2023-02-15T03:57:04;102480.19;;;0.10;100.00
9257;BME280;4665;51.368;6.782;2023-02-15T03:59:50;102477.59;;;0.10;100.00
9257;BME280;4665;51.368;6.782;2023-02-15T04:02:42;102488.09;;;0.09;100.00
9257;BME280;4665;51.368;6.782;2023-02-15T04:05:10;102490.00;;;0.04;100.00
9257;BME280;4665;51.368;6.782;2023-02-15T04:07:35;102477.88;;;-0.01;100.00
9257;BME280;4665;51.368;6.782;2023-02-15T04:10:01;102482.16;;;0.04;100.00
9257;BME280;4665;51.368;6.782;2023-02-15T04:12:45;102482.25;;;0.01;100.00
9257;BME280;4665;51.368;6.782;2023-02-15T04:15:13;102472.66;;;-0.01;100.00
9257;BME280;4665;51.368;6.782;2023-02-15T04:17:57;102481.31;;;0.02;100.00
9257;BME280;4665;51.368;6.782;2023-02-15T04:20:23;102476.19;;;-0.02;100.00
9257;BME280;4665;51.368;6.782;2023-02-15T04:23:07;102476.28;;;-0.05;100.00
9257;BME280;4665;51.368;6.782;2023-02-15T04:25:51;102475.50;;;-0.08;100.00
9257;BME280;4665;51.368;6.782;2023-02-15T04:28:17;102479.91;;;-0.09;100.00
9257;BME280;4665;51.368;6.782;2023-02-15T04:30:42;102478.25;;;-0.13;100.00
9257;BME280;4665;51.368;6.782;2023-02-15T04:33:08;102485.13;;;-0.09;100.00
9257;BME280;4665;51.368;6.782;2023-02-15T04:35:33;102473.94;;;-0.14;100.00
9257;BME280;4665;51.368;6.782;2023-02-15T04:37:59;102476.34;;;-0.08;100.00
9257;BME280;4665;51.368;6.782;2023-02-15T04:40:24;102472.91;;;-0.10;100.00
9257;BME280;4665;51.368;6.782;2023-02-15T04:42:50;102474.84;;;-0.16;100.00
9257;BME280;4665;51.368;6.782;2023-02-15T04:45:16;102476.44;;;-0.11;100.00
9257;BME280;4665;51.368;6.782;2023-02-15T04:47:42;102473.94;;;-0.14;100.00
9257;BME280;4665;51.368;6.782;2023-02-15T04:50:08;102482.63;;;-0.13;100.00
9257;BME280;4665;51.368;6.782;2023-02-15T04:52:33;102472.16;;;-0.13;100.00
9257;BME280;4665;51.368;6.782;2023-02-15T04:54:59;102464.47;;;-0.19;100.00
9257;BME280;4665;51.368;6.782;2023-02-15T04:57:24;102460.22;;;-0.24;100.00
9257;BME280;4665;51.368;6.782;2023-02-15T04:59:50;102462.91;;;-0.25;100.00
9257;BME280;4665;51.368;6.782;2023-02-15T05:02:15;102465.41;;;-0.22;100.00
9257;BME280;4665;51.368;6.782;2023-02-15T05:04:41;102457.56;;;-0.22;100.00
9257;BME280;4665;51.368;6.782;2023-02-15T05:07:06;102467.94;;;-0.19;100.00
9257;BME280;4665;51.368;6.782;2023-02-15T05:09:32;102462.91;;;-0.25;100.00
9257;BME280;4665;51.368;6.782;2023-02-15T05:11:57;102465.50;;;-0.25;100.00
9257;BME280;4665;51.368;6.782;2023-02-15T05:14:23;102465.44;;;-0.24;100.00
9257;BME280;4665;51.368;6.782;2023-02-15T05:16:48;102460.19;;;-0.22;100.00
9257;BME280;4665;51.368;6.782;2023-02-15T05:19:14;102461.94;;;-0.23;100.00
9257;BME280;4665;51.368;6.782;2023-02-15T05:21:39;102451.50;;;-0.24;100.00
9257;BME280;4665;51.368;6.782;2023-02-15T05:24:05;102458.41;;;-0.22;100.00
9257;BME280;4665;51.368;6.782;2023-02-15T05:26:50;102443.53;;;-0.21;100.00
9257;BME280;4665;51.368;6.782;2023-02-15T05:29:34;102447.13;;;-0.24;100.00
9257;BME280;4665;51.368;6.782;2023-02-15T05:32:00;102445.50;;;-0.28;100.00
9257;BME280;4665;51.368;6.782;2023-02-15T05:34:25;102443.03;;;-0.32;100.00
9257;BME280;4665;51.368;6.782;2023-02-15T05:36:51;102437.78;;;-0.32;100.00
9257;BME280;4665;51.368;6.782;2023-02-15T05:39:16;102437.81;;;-0.34;100.00
9257;BME280;4665;51.368;6.782;2023-02-15T05:41:42;102440.59;;;-0.40;100.00
9257;BME280;4665;51.368;6.782;2023-02-15T05:44:07;102443.28;;;-0.41;100.00
9257;BME280;4665;51.368;6.782;2023-02-15T05:46:32;102433.69;;;-0.43;100.00
9257;BME280;4665;51.368;6.782;2023-02-15T05:48:58;102427.50;;;-0.40;100.00
9257;BME280;4665;51.368;6.782;2023-02-15T05:51:23;102437.84;;;-0.35;100.00
9257;BME280;4665;51.368;6.782;2023-02-15T05:53:49;102429.97;;;-0.34;100.00
9257;BME280;4665;51.368;6.782;2023-02-15T05:56:14;102425.69;;;-0.38;100.00
9257;BME280;4665;51.368;6.782;2023-02-15T05:58:41;102434.38;;;-0.36;100.00
9257;BME280;4665;51.368;6.782;2023-02-15T06:01:15;102434.38;;;-0.36;100.00
9257;BME280;4665;51.368;6.782;2023-02-15T06:03:41;102436.09;;;-0.35;100.00
9257;BME280;4665;51.368;6.782;2023-02-15T06:06:07;102427.25;;;-0.31;100.00
9257;BME280;4665;51.368;6.782;2023-02-15T06:08:33;102438.31;;;-0.21;100.00
9257;BME280;4665;51.368;6.782;2023-02-15T06:11:00;102446.00;;;-0.15;100.00
9257;BME280;4665;51.368;6.782;2023-02-15T06:13:25;102442.28;;;-0.08;100.00
9257;BME280;4665;51.368;6.782;2023-02-15T06:15:51;102447.22;;;0.03;100.00
9257;BME280;4665;51.368;6.782;2023-02-15T06:18:16;102447.97;;;0.07;100.00
9257;BME280;4665;51.368;6.782;2023-02-15T06:20:42;102437.44;;;0.08;100.00
9257;BME280;4665;51.368;6.782;2023-02-15T06:23:07;102443.38;;;0.15;100.00
9257;BME280;4665;51.368;6.782;2023-02-15T06:25:33;102447.63;;;0.19;100.00
9257;BME280;4665;51.368;6.782;2023-02-15T06:27:58;102443.97;;;0.23;100.00
9257;BME280;4665;51.368;6.782;2023-02-15T06:30:24;102451.56;;;0.32;100.00
9257;BME280;4665;51.368;6.782;2023-02-15T06:32:49;102448.88;;;0.35;100.00
9257;BME280;4665;51.368;6.782;2023-02-15T06:35:14;102447.22;;;0.31;100.00
9257;BME280;4665;51.368;6.782;2023-02-15T06:37:40;102455.78;;;0.38;100.00
9257;BME280;4665;51.368;6.782;2023-02-15T06:40:12;102462.72;;;0.39;100.00
9257;BME280;4665;51.368;6.782;2023-02-15T06:42:38;102458.44;;;0.36;100.00
9257;BME280;4665;51.368;6.782;2023-02-15T06:45:04;102456.59;;;0.40;100.00
9257;BME280;4665;51.368;6.782;2023-02-15T06:47:29;102454.78;;;0.42;100.00
9257;BME280;4665;51.368;6.782;2023-02-15T06:49:55;102464.38;;;0.41;100.00
9257;BME280;4665;51.368;6.782;2023-02-15T06:52:21;102463.53;;;0.41;100.00
9257;BME280;4665;51.368;6.782;2023-02-15T06:54:46;102463.56;;;0.39;100.00
9257;BME280;4665;51.368;6.782;2023-02-15T06:57:11;102463.53;;;0.41;100.00
9257;BME280;4665;51.368;6.782;2023-02-15T06:59:37;102459.25;;;0.38;100.00
9257;BME280;4665;51.368;6.782;2023-02-15T07:02:02;102460.88;;;0.43;100.00
9257;BME280;4665;51.368;6.782;2023-02-15T07:04:28;102455.63;;;0.43;100.00
9257;BME280;4665;51.368;6.782;2023-02-15T07:06:55;102465.91;;;0.49;100.00
9257;BME280;4665;51.368;6.782;2023-02-15T07:09:21;102459.88;;;0.47;100.00
9257;BME280;4665;51.368;6.782;2023-02-15T07:11:47;102452.59;;;0.55;100.00
9257;BME280;4665;51.368;6.782;2023-02-15T07:14:31;102462.22;;;0.56;100.00
9257;BME280;4665;51.368;6.782;2023-02-15T07:16:57;102463.00;;;0.58;100.00
9257;BME280;4665;51.368;6.782;2023-02-15T07:19:22;102460.28;;;0.61;100.00
9257;BME280;4665;51.368;6.782;2023-02-15T07:21:48;102455.91;;;0.61;100.00
9257;BME280;4665;51.368;6.782;2023-02-15T07:24:13;102458.38;;;0.66;100.00
9257;BME280;4665;51.368;6.782;2023-02-15T07:26:39;102451.34;;;0.67;100.00
9257;BME280;4665;51.368;6.782;2023-02-15T07:29:04;102453.16;;;0.65;100.00
9257;BME280;4665;51.368;6.782;2023-02-15T07:31:32;102444.34;;;0.67;100.00
9257;BME280;4665;51.368;6.782;2023-02-15T07:33:58;102432.03;;;0.69;100.00
9257;BME280;4665;51.368;6.782;2023-02-15T07:36:23;102430.13;;;0.74;100.00
9257;BME280;4665;51.368;6.782;2023-02-15T07:38:48;102428.22;;;0.79;100.00
9257;BME280;4665;51.368;6.782;2023-02-15T07:41:15;102435.03;;;0.83;100.00
9257;BME280;4665;51.368;6.782;2023-02-15T07:43:42;102427.09;;;0.87;100.00
9257;BME280;4665;51.368;6.782;2023-02-15T07:46:11;102421.72;;;0.90;100.00
9257;BME280;4665;51.368;6.782;2023-02-15T07:48:37;102413.81;;;0.91;100.00
9257;BME280;4665;51.368;6.782;2023-02-15T07:51:05;102421.44;;;0.97;100.00
9257;BME280;4665;51.368;6.782;2023-02-15T07:53:32;102415.28;;;1.00;100.00
9257;BME280;4665;51.368;6.782;2023-02-15T07:56:18;102412.41;;;1.06;100.00
9257;BME280;4665;51.368;6.782;2023-02-15T07:58:43;102420.19;;;1.09;100.00
9257;BME280;4665;51.368;6.782;2023-02-15T08:01:35;102404.22;;;1.15;100.00
9257;BME280;4665;51.368;6.782;2023-02-15T08:04:03;102410.88;;;1.25;100.00
9257;BME280;4665;51.368;6.782;2023-02-15T08:06:31;102402.72;;;1.33;100.00
9257;BME280;4665;51.368;6.782;2023-02-15T08:08:57;102406.66;;;1.45;100.00
9257;BME280;4665;51.368;6.782;2023-02-15T08:11:24;102394.09;;;1.53;100.00
9257;BME280;4665;51.368;6.782;2023-02-15T08:13:58;102403.34;;;1.63;100.00
9257;BME280;4665;51.368;6.782;2023-02-15T08:16:36;102396.03;;;1.72;100.00
9257;BME280;4665;51.368;6.782;2023-02-15T08:19:17;102404.28;;;1.86;100.00
9257;BME280;4665;51.368;6.782;2023-02-15T08:21:45;102393.31;;;1.97;100.00
9257;BME280;4665;51.368;6.782;2023-02-15T08:24:20;102391.09;;;2.09;100.00
9257;BME280;4665;51.368;6.782;2023-02-15T08:26:46;102395.03;;;2.20;100.00
9257;BME280;4665;51.368;6.782;2023-02-15T08:29:14;102388.53;;;2.30;100.00
9257;BME280;4665;51.368;6.782;2023-02-15T08:31:39;102390.69;;;2.41;100.00
9257;BME280;4665;51.368;6.782;2023-02-15T08:34:07;102377.09;;;2.51;100.00
9257;BME280;4665;51.368;6.782;2023-02-15T08:36:33;102375.94;;;2.59;100.00
9257;BME280;4665;51.368;6.782;2023-02-15T08:39:02;102370.16;;;2.71;100.00
9257;BME280;4665;51.368;6.782;2023-02-15T08:41:36;102369.69;;;2.82;100.00
9257;BME280;4665;51.368;6.782;2023-02-15T08:44:06;102368.38;;;2.92;100.00
9257;BME280;4665;51.368;6.782;2023-02-15T08:46:33;102371.44;;;3.02;100.00
9257;BME280;4665;51.368;6.782;2023-02-15T08:48:59;102368.31;;;3.14;100.00
9257;BME280;4665;51.368;6.782;2023-02-15T08:51:28;102365.38;;;3.20;100.00
9257;BME280;4665;51.368;6.782;2023-02-15T08:53:56;102367.81;;;3.25;100.00
9257;BME280;4665;51.368;6.782;2023-02-15T08:56:24;102361.44;;;3.30;100.00
9257;BME280;4665;51.368;6.782;2023-02-15T08:58:50;102354.94;;;3.37;100.00
9257;BME280;4665;51.368;6.782;2023-02-15T09:01:18;102343.34;;;3.42;100.00
9257;BME280;4665;51.368;6.782;2023-02-15T09:03:51;102348.22;;;3.51;100.00
9257;BME280;4665;51.368;6.782;2023-02-15T09:06:20;102346.16;;;3.57;100.00
9257;BME280;4665;51.368;6.782;2023-02-15T09:08:47;102343.34;;;3.61;100.00
9257;BME280;4665;51.368;6.782;2023-02-15T09:11:14;102349.06;;;3.70;100.00
9257;BME280;4665;51.368;6.782;2023-02-15T09:13:48;102343.19;;;3.83;100.00
9257;BME280;4665;51.368;6.782;2023-02-15T09:16:14;102345.59;;;3.87;100.00
9257;BME280;4665;51.368;6.782;2023-02-15T09:18:42;102342.47;;;3.98;100.00
9257;BME280;4665;51.368;6.782;2023-02-15T09:21:10;102350.66;;;4.11;100.00
9257;BME280;4665;51.368;6.782;2023-02-15T09:23:38;102349.50;;;4.16;100.00
9257;BME280;4665;51.368;6.782;2023-02-15T09:26:06;102345.34;;;4.30;100.00
9257;BME280;4665;51.368;6.782;2023-02-15T09:28:32;102349.44;;;4.35;100.00
9257;BME280;4665;51.368;6.782;2023-02-15T09:31:07;102360.25;;;4.48;100.00
9257;BME280;4665;51.368;6.782;2023-02-15T09:33:34;102355.50;;;4.55;100.00
9257;BME280;4665;51.368;6.782;2023-02-15T09:36:00;102360.31;;;4.64;100.00
9257;BME280;4665;51.368;6.782;2023-02-15T09:38:26;102355.44;;;4.74;100.00
9257;BME280;4665;51.368;6.782;2023-02-15T09:44:10;102358.22;;;4.88;100.00
9257;BME280;4665;51.368;6.782;2023-02-15T09:55:56;102343.47;;;5.17;100.00
9257;BME280;4665;51.368;6.782;2023-02-15T10:09:02;102351.50;;;5.65;100.00
9257;BME280;4665;51.368;6.782;2023-02-15T10:12:08;102354.66;;;5.72;100.00
9257;BME280;4665;51.368;6.782;2023-02-15T10:25:36;102345.34;;;6.12;100.00
9257;BME280;4665;51.368;6.782;2023-02-15T10:28:11;102351.94;;;6.21;100.00
9257;BME280;4665;51.368;6.782;2023-02-15T10:33:38;102332.78;;;6.31;100.00
9257;BME280;4665;51.368;6.782;2023-02-15T10:39:02;102344.69;;;6.55;100.00
9257;BME280;4665;51.368;6.782;2023-02-15T10:44:33;102332.13;;;6.72;100.00
9257;BME280;4665;51.368;6.782;2023-02-15T10:47:17;102336.72;;;6.85;100.00
9257;BME280;4665;51.368;6.782;2023-02-15T10:49:56;102328.78;;;6.99;100.00
9257;BME280;4665;51.368;6.782;2023-02-15T10:57:51;102327.06;;;7.27;100.00
9257;BME280;4665;51.368;6.782;2023-02-15T11:08:24;102315.53;;;7.69;100.00
9257;BME280;4665;51.368;6.782;2023-02-15T11:11:02;102319.88;;;7.85;100.00
9257;BME280;4665;51.368;6.782;2023-02-15T11:13:36;102321.63;;;7.98;100.00
9257;BME280;4665;51.368;6.782;2023-02-15T11:16:14;102314.97;;;8.06;100.00
9257;BME280;4665;51.368;6.782;2023-02-15T11:18:54;102320.22;;;8.20;100.00
9257;BME280;4665;51.368;6.782;2023-02-15T11:21:26;102321.50;;;8.27;100.00
9257;BME280;4665;51.368;6.782;2023-02-15T11:23:54;102323.34;;;8.39;100.00
9257;BME280;4665;51.368;6.782;2023-02-15T11:29:35;102317.13;;;8.40;100.00
9257;BME280;4665;51.368;6.782;2023-02-15T11:43:00;102307.06;;;8.71;100.00
9257;BME280;4665;51.368;6.782;2023-02-15T11:45:33;102308.34;;;8.78;100.00
9257;BME280;4665;51.368;6.782;2023-02-15T11:48:00;102294.50;;;8.86;100.00
9257;BME280;4665;51.368;6.782;2023-02-15T11:50:29;102297.81;;;8.90;100.00
9257;BME280;4665;51.368;6.782;2023-02-15T11:53:02;102289.19;;;8.99;100.00
9257;BME280;4665;51.368;6.782;2023-02-15T11:55:30;102288.34;;;9.11;100.00
9257;BME280;4665;51.368;6.782;2023-02-15T11:59:00;102280.44;;;9.22;100.00
9257;BME280;4665;51.368;6.782;2023-02-15T12:03:59;102266.78;;;9.40;100.00
9257;BME280;4665;51.368;6.782;2023-02-15T12:06:30;102272.31;;;9.50;100.00
9257;BME280;4665;51.368;6.782;2023-02-15T12:09:49;102269.06;;;9.57;100.00
9257;BME280;4665;51.368;6.782;2023-02-15T12:14:55;102258.03;;;9.75;100.00
9257;BME280;4665;51.368;6.782;2023-02-15T12:17:24;102243.34;;;9.82;100.00
9257;BME280;4665;51.368;6.782;2023-02-15T12:19:54;102243.84;;;9.87;100.00
9257;BME280;4665;51.368;6.782;2023-02-15T12:22:28;102243.88;;;9.98;100.00
9257;BME280;4665;51.368;6.782;2023-02-15T12:24:56;102243.94;;;10.09;100.00
9257;BME280;4665;51.368;6.782;2023-02-15T12:27:27;102233.28;;;10.21;100.00
9257;BME280;4665;51.368;6.782;2023-02-15T12:30:01;102235.16;;;10.31;100.00
9257;BME280;4665;51.368;6.782;2023-02-15T12:32:35;102231.81;;;10.41;100.00
9257;BME280;4665;51.368;6.782;2023-02-15T12:35:13;102249.84;;;10.48;100.00
9257;BME280;4665;51.368;6.782;2023-02-15T12:37:52;102238.09;;;10.51;100.00
9257;BME280;4665;51.368;6.782;2023-02-15T12:40:22;102224.66;;;10.52;100.00
9257;BME280;4665;51.368;6.782;2023-02-15T12:42:48;102231.94;;;10.62;98.89
9257;BME280;4665;51.368;6.782;2023-02-15T12:45:31;102227.84;;;10.69;100.00
9257;BME280;4665;51.368;6.782;2023-02-15T12:48:14;102225.19;;;10.80;93.67
9257;BME280;4665;51.368;6.782;2023-02-15T12:50:51;102214.88;;;10.76;97.76
9257;BME280;4665;51.368;6.782;2023-02-15T12:53:21;102217.19;;;10.80;100.00
9257;BME280;4665;51.368;6.782;2023-02-15T12:55:58;102217.91;;;10.93;95.63
9257;BME280;4665;51.368;6.782;2023-02-15T12:58:26;102210.13;;;11.02;94.93
9257;BME280;4665;51.368;6.782;2023-02-15T13:01:17;102217.19;;;11.03;100.00
9257;BME280;4665;51.368;6.782;2023-02-15T13:03:54;102204.06;;;11.00;94.84
9257;BME280;4665;51.368;6.782;2023-02-15T13:06:20;102203.97;;;11.01;96.33
9257;BME280;4665;51.368;6.782;2023-02-15T13:08:49;102205.16;;;11.08;99.63
9257;BME280;4665;51.368;6.782;2023-02-15T13:11:35;102202.13;;;11.13;93.28
9257;BME280;4665;51.368;6.782;2023-02-15T13:14:16;102189.53;;;11.15;96.67
9257;BME280;4665;51.368;6.782;2023-02-15T13:16:44;102187.09;;;11.23;95.63
9257;BME280;4665;51.368;6.782;2023-02-15T13:19:26;102182.94;;;11.30;91.82
9257;BME280;4665;51.368;6.782;2023-02-15T13:21:54;102165.84;;;11.33;94.09
9257;BME280;4665;51.368;6.782;2023-02-15T13:24:25;102174.19;;;11.40;89.57
9257;BME280;4665;51.368;6.782;2023-02-15T13:26:55;102174.03;;;11.41;96.75
9257;BME280;4665;51.368;6.782;2023-02-15T13:29:30;102169.53;;;11.42;96.17
9257;BME280;4665;51.368;6.782;2023-02-15T13:32:00;102169.06;;;11.48;97.10
9257;BME280;4665;51.368;6.782;2023-02-15T13:34:35;102167.94;;;11.50;97.67
9257;BME280;4665;51.368;6.782;2023-02-15T13:39:44;102164.50;;;11.59;93.36
9257;BME280;4665;51.368;6.782;2023-02-15T13:42:31;102156.38;;;11.61;92.53
9257;BME280;4665;51.368;6.782;2023-02-15T13:53:56;102145.09;;;11.90;80.98
9257;BME280;4665;51.368;6.782;2023-02-15T13:57:06;102147.38;;;11.94;82.68
9257;BME280;4665;51.368;6.782;2023-02-15T14:00:02;102135.81;;;12.05;80.02
9257;BME280;4665;51.368;6.782;2023-02-15T14:11:12;102138.16;;;12.29;69.63
9257;BME280;4665;51.368;6.782;2023-02-15T14:16:31;102132.88;;;12.39;69.33
9257;BME280;4665;51.368;6.782;2023-02-15T14:24:42;102139.25;;;12.48;65.84
9257;BME280;4665;51.368;6.782;2023-02-15T14:27:27;102130.50;;;12.46;64.72
9257;BME280;4665;51.368;6.782;2023-02-15T14:30:10;102136.97;;;12.43;68.16
9257;BME280;4665;51.368;6.782;2023-02-15T14:32:45;102130.19;;;12.39;75.64
9257;BME280;4665;51.368;6.782;2023-02-15T14:35:19;102129.19;;;12.30;77.70
9257;BME280;4665;51.368;6.782;2023-02-15T14:38:03;102119.88;;;12.25;77.57
9257;BME280;4665;51.368;6.782;2023-02-15T14:43:47;102122.50;;;12.15;73.84
9257;BME280;4665;51.368;6.782;2023-02-15T14:48:49;102122.69;;;12.02;76.14
9257;BME280;4665;51.368;6.782;2023-02-15T14:57:25;102115.25;;;11.85;81.15
9257;BME280;4665;51.368;6.782;2023-02-15T15:02:43;102106.59;;;11.71;80.62
9257;BME280;4665;51.368;6.782;2023-02-15T15:07:57;102111.06;;;11.71;83.74
9257;BME280;4665;51.368;6.782;2023-02-15T15:10:43;102111.34;;;11.68;81.71
9257;BME280;4665;51.368;6.782;2023-02-15T15:13:38;102109.63;;;11.67;87.39
9257;BME280;4665;51.368;6.782;2023-02-15T15:16:24;102114.97;;;11.67;92.80
9257;BME280;4665;51.368;6.782;2023-02-15T15:18:50;102119.75;;;11.63;96.82
9257;BME280;4665;51.368;6.782;2023-02-15T15:32:52;102110.38;;;11.36;100.00
9257;BME280;4665;51.368;6.782;2023-02-15T15:49:45;102106.84;;;11.04;100.00
9257;BME280;4665;51.368;6.782;2023-02-15T15:52:17;102109.31;;;10.95;100.00
9257;BME280;4665;51.368;6.782;2023-02-15T15:54:45;102109.81;;;10.89;100.00
9257;BME280;4665;51.368;6.782;2023-02-15T15:57:39;102113.94;;;10.82;100.00
9257;BME280;4665;51.368;6.782;2023-02-15T16:00:43;102114.56;;;10.74;100.00
9257;BME280;4665;51.368;6.782;2023-02-15T16:03:22;102126.44;;;10.70;100.00
9257;BME280;4665;51.368;6.782;2023-02-15T16:05:48;102109.09;;;10.65;100.00
9257;BME280;4665;51.368;6.782;2023-02-15T16:08:34;102110.09;;;10.64;100.00
9257;BME280;4665;51.368;6.782;2023-02-15T16:11:15;102112.28;;;10.59;100.00
9257;BME280;4665;51.368;6.782;2023-02-15T16:13:42;102108.41;;;10.51;100.00
9257;BME280;4665;51.368;6.782;2023-02-15T16:16:08;102106.13;;;10.47;100.00
9257;BME280;4665;51.368;6.782;2023-02-15T16:18:37;102113.47;;;10.43;100.00
9257;BME280;4665;51.368;6.782;2023-02-15T16:21:17;102105.50;;;10.43;100.00
9257;BME280;4665;51.368;6.782;2023-02-15T16:29:31;102094.97;;;10.30;100.00
9257;BME280;4665;51.368;6.782;2023-02-15T16:32:02;102106.91;;;10.25;100.00